Time;durP1;ratioP1;P1;durP2;ratioP2;P2;SDS_P1;SDS_P2;PMS_P1;PMS_P2;Temp;Humidity;BMP_temperature;BMP_pressure;BME280_temperature;BME280_humidity;BME280_pressure;Samples;Min_cycle;Max_cycle;Signal;HPM_P1;HPM_P2
2022/04/09 00:02:11;;;;;;;1.70;1.60;;;4.20;99.90;;;;;;5085933;28;20800;-82
2022/04/09 00:04:56;;;;;;;5.60;2.10;;;4.20;99.90;;;;;;5085952;28;20467;-81
2022/04/09 00:07:41;;;;;;;1.97;1.83;;;4.20;99.90;;;;;;5085478;28;20385;-82
2022/04/09 00:10:26;;;;;;;2.37;1.73;;;4.20;99.90;;;;;;5083932;28;20560;-82
2022/04/09 00:13:10;;;;;;;2.10;1.83;;;4.20;99.90;;;;;;5064952;28;20700;-82
2022/04/09 00:15:55;;;;;;;2.07;1.70;;;4.20;99.90;;;;;;5065496;28;20884;-82
2022/04/09 00:18:43;;;;;;;1.77;1.67;;;4.20;99.90;;;;;;5065055;28;20392;-83
2022/04/09 00:21:28;;;;;;;1.67;1.57;;;4.10;99.90;;;;;;5059374;28;20444;-82
2022/04/09 00:24:15;;;;;;;3.03;2.73;;;4.30;99.90;;;;;;5065046;28;20386;-83
2022/04/09 00:27:00;;;;;;;2.30;2.07;;;4.20;99.90;;;;;;5064384;28;20356;-83
2022/04/09 00:29:47;;;;;;;2.10;1.87;;;4.10;99.90;;;;;;5049376;28;20441;-82
2022/04/09 00:32:31;;;;;;;1.70;1.60;;;4.10;99.90;;;;;;5064110;28;20364;-82
2022/04/09 00:35:19;;;;;;;1.83;1.73;;;4.00;99.90;;;;;;5057700;28;20471;-83
2022/04/09 00:38:03;;;;;;;1.60;1.50;;;4.00;99.90;;;;;;5049313;28;20437;-82
2022/04/09 00:40:51;;;;;;;2.03;1.93;;;4.10;99.90;;;;;;5064024;28;20398;-83
2022/04/09 00:43:40;;;;;;;1.93;1.83;;;4.10;99.90;;;;;;5034972;28;20468;-82
2022/04/09 00:46:26;;;;;;;2.33;1.67;;;4.10;99.90;;;;;;5049426;28;20402;-82
2022/04/09 00:49:13;;;;;;;2.47;2.27;;;4.20;99.90;;;;;;5065308;28;20508;-83
2022/04/09 00:52:04;;;;;;;1.50;1.40;;;4.20;99.90;;;;;;5067091;28;20386;-83
2022/04/09 00:54:49;;;;;;;2.00;1.87;;;4.30;99.90;;;;;;5035038;28;20483;-79
2022/04/09 00:57:35;;;;;;;2.23;2.00;;;4.30;99.90;;;;;;5053107;28;20390;-79
2022/04/09 01:00:20;;;;;;;1.97;1.87;;;4.20;99.90;;;;;;5052527;28;20446;-81
2022/04/09 01:03:04;;;;;;;2.33;2.20;;;4.20;99.90;;;;;;5043045;28;20409;-82
2022/04/09 01:05:49;;;;;;;3.10;1.63;;;4.30;99.90;;;;;;5042746;28;20374;-82
2022/04/09 01:08:34;;;;;;;2.13;1.80;;;4.30;99.90;;;;;;5042847;28;20469;-82
2022/04/09 01:11:18;;;;;;;2.00;1.80;;;4.30;99.90;;;;;;5041443;28;20429;-82
2022/04/09 01:14:07;;;;;;;1.90;1.80;;;4.30;99.90;;;;;;5041078;28;20435;-82
2022/04/09 01:16:52;;;;;;;2.00;1.90;;;4.30;99.90;;;;;;5040646;28;20390;-82
2022/04/09 01:19:36;;;;;;;2.40;2.20;;;4.30;99.90;;;;;;5027946;28;20431;-82
2022/04/09 01:22:21;;;;;;;2.40;2.20;;;4.40;99.90;;;;;;5041492;28;20463;-82
2022/04/09 01:25:05;;;;;;;1.97;1.77;;;4.40;99.90;;;;;;5048764;28;20392;-82
2022/04/09 01:27:51;;;;;;;1.60;1.50;;;4.40;99.90;;;;;;5063413;28;20398;-82
2022/04/09 01:30:36;;;;;;;2.33;2.07;;;4.50;99.90;;;;;;5062901;28;20950;-81
2022/04/09 01:33:22;;;;;;;3.17;2.87;;;4.50;99.90;;;;;;5033552;28;20417;-83
2022/04/09 01:36:07;;;;;;;2.60;2.40;;;4.50;99.90;;;;;;5048378;28;20366;-83
2022/04/09 01:38:51;;;;;;;2.47;2.00;;;4.50;99.90;;;;;;5048183;28;20386;-83
2022/04/09 01:41:36;;;;;;;2.30;2.10;;;4.40;99.90;;;;;;5049030;28;20390;-83
2022/04/09 01:44:21;;;;;;;2.70;2.37;;;4.30;99.90;;;;;;5064316;28;20493;-79
2022/04/09 01:47:08;;;;;;;2.23;2.03;;;4.30;99.90;;;;;;5048698;28;20434;-83
2022/04/09 01:49:53;;;;;;;2.10;1.90;;;4.30;99.90;;;;;;5022463;28;20458;-83
2022/04/09 01:52:39;;;;;;;2.70;2.23;;;4.30;99.90;;;;;;5026241;28;20417;-83
2022/04/09 01:55:24;;;;;;;1.80;1.70;;;4.30;99.90;;;;;;5027535;28;20480;-83
2022/04/09 01:58:08;;;;;;;2.03;1.93;;;4.30;99.90;;;;;;5040149;28;20403;-82
2022/04/09 02:00:58;;;;;;;3.30;2.27;;;4.40;99.90;;;;;;5020341;28;20408;-81
2022/04/09 02:03:43;;;;;;;2.20;2.00;;;4.40;99.90;;;;;;5020886;28;20420;-82
2022/04/09 02:06:28;;;;;;;4.03;2.80;;;4.30;99.90;;;;;;5020278;28;20469;-83
2022/04/09 02:09:13;;;;;;;2.40;2.17;;;4.30;99.90;;;;;;5017598;28;20577;-83
2022/04/09 02:11:59;;;;;;;2.37;2.23;;;4.30;99.90;;;;;;4994291;28;20452;-83
2022/04/09 02:14:44;;;;;;;2.57;2.10;;;4.40;99.90;;;;;;4973633;28;20401;-83
2022/04/09 02:17:29;;;;;;;2.20;2.10;;;4.30;99.90;;;;;;4987951;28;20398;-83
2022/04/09 02:20:17;;;;;;;3.27;2.93;;;4.30;99.90;;;;;;4988988;28;20814;-82
2022/04/09 02:23:01;;;;;;;2.50;2.00;;;4.30;99.90;;;;;;5035994;28;20396;-81
2022/04/09 02:25:48;;;;;;;3.40;2.37;;;4.30;99.90;;;;;;5033677;28;20443;-81
2022/04/09 02:28:34;;;;;;;2.50;2.00;;;4.20;99.90;;;;;;5035279;28;20451;-80
2022/04/09 02:31:20;;;;;;;2.83;2.63;;;4.20;99.90;;;;;;5051374;28;20391;-80
2022/04/09 02:34:05;;;;;;;2.50;2.27;;;4.20;99.90;;;;;;5072883;28;20442;-81
2022/04/09 02:36:53;;;;;;;5.43;2.33;;;4.30;99.90;;;;;;5071231;28;20398;-81
2022/04/09 02:39:37;;;;;;;1.97;1.87;;;4.40;99.90;;;;;;5071224;28;20430;-81
2022/04/09 02:42:22;;;;;;;2.20;2.10;;;4.30;99.90;;;;;;5071896;28;20902;-83
2022/04/09 02:45:08;;;;;;;2.20;1.73;;;4.40;99.90;;;;;;5057787;28;20373;-81
2022/04/09 02:47:52;;;;;;;1.67;1.53;;;4.40;99.90;;;;;;5009817;28;20408;-83
2022/04/09 02:50:37;;;;;;;2.30;2.10;;;4.50;99.90;;;;;;4995213;28;20468;-82
2022/04/09 02:53:21;;;;;;;3.10;2.80;;;4.50;99.90;;;;;;5009384;28;20416;-82
2022/04/09 02:56:09;;;;;;;3.43;3.13;;;4.50;99.90;;;;;;5009061;28;20448;-81
2022/04/09 02:58:53;;;;;;;6.83;3.80;;;4.30;99.90;;;;;;4989893;28;20410;-81
2022/04/09 03:01:42;;;;;;;2.90;2.70;;;4.40;99.90;;;;;;4988612;28;20433;-82
2022/04/09 03:04:26;;;;;;;3.43;3.07;;;4.50;99.90;;;;;;4988492;28;20368;-81
2022/04/09 03:07:10;;;;;;;2.70;2.50;;;4.50;99.90;;;;;;4990815;28;20417;-81
2022/04/09 03:09:55;;;;;;;5.80;3.50;;;4.50;99.90;;;;;;4976609;28;20419;-83
2022/04/09 03:12:44;;;;;;;5.90;3.83;;;4.50;99.90;;;;;;4989024;28;20445;-81
2022/04/09 03:15:31;;;;;;;4.17;3.40;;;4.50;99.90;;;;;;4985432;28;20402;-81
2022/04/09 03:18:15;;;;;;;5.10;4.17;;;4.50;99.90;;;;;;4985734;28;20442;-83
2022/04/09 03:21:03;;;;;;;4.50;4.10;;;4.50;99.90;;;;;;5024280;28;20392;-82
2022/04/09 03:23:47;;;;;;;4.13;3.60;;;4.40;99.90;;;;;;5024297;28;20407;-80
2022/04/09 03:26:32;;;;;;;12.17;3.67;;;4.40;99.90;;;;;;5028322;28;20468;-82
2022/04/09 03:29:18;;;;;;;3.57;3.27;;;4.30;99.90;;;;;;5049498;28;20480;-83
2022/04/09 03:32:03;;;;;;;5.53;4.03;;;4.10;99.90;;;;;;5089019;28;20388;-82
2022/04/09 03:35:06;;;;;;;5.30;3.87;;;4.20;99.90;;;;;;5090320;28;20344;-82
2022/04/09 03:37:52;;;;;;;7.13;4.23;;;4.30;99.90;;;;;;5090768;28;20389;-81
2022/04/09 03:40:40;;;;;;;3.43;3.13;;;4.30;99.90;;;;;;5071845;28;20401;-81
2022/04/09 03:43:26;;;;;;;4.90;4.40;;;4.00;99.90;;;;;;5084767;28;20432;-83
2022/04/09 03:46:10;;;;;;;4.40;4.00;;;3.90;99.90;;;;;;5079778;28;20474;-82
2022/04/09 03:48:55;;;;;;;5.80;5.20;;;4.00;99.90;;;;;;5054178;28;20799;-82
2022/04/09 03:51:39;;;;;;;4.10;3.70;;;4.10;99.90;;;;;;5085093;28;20420;-83
2022/04/09 03:54:25;;;;;;;4.17;3.77;;;3.90;99.90;;;;;;5085067;28;20393;-83
2022/04/09 03:57:10;;;;;;;6.10;4.73;;;4.10;99.90;;;;;;5085336;28;20474;-83
2022/04/09 03:59:57;;;;;;;5.77;4.00;;;3.80;99.90;;;;;;5069942;28;20381;-82
2022/04/09 04:02:42;;;;;;;5.23;4.00;;;3.90;99.90;;;;;;5084764;28;20515;-83
2022/04/09 04:05:26;;;;;;;5.30;4.33;;;3.60;99.90;;;;;;5084700;28;20409;-82
2022/04/09 04:08:11;;;;;;;7.13;4.30;;;3.70;99.90;;;;;;5069757;28;20397;-83
2022/04/09 04:10:58;;;;;;;9.67;5.40;;;3.50;99.90;;;;;;5085304;28;20467;-83
2022/04/09 04:13:43;;;;;;;5.03;3.40;;;3.50;99.90;;;;;;5085842;28;20476;-83
2022/04/09 04:16:31;;;;;;;7.43;5.37;;;3.40;99.90;;;;;;5086163;28;20415;-83
2022/04/09 04:19:15;;;;;;;4.40;3.83;;;3.60;99.90;;;;;;5086808;28;20389;-83
2022/04/09 04:22:00;;;;;;;7.53;3.50;;;3.70;99.90;;;;;;5086104;28;20453;-85
2022/04/09 04:24:44;;;;;;;4.93;3.90;;;3.50;99.90;;;;;;5027822;28;20423;-82
2022/04/09 04:27:29;;;;;;;4.23;3.70;;;3.30;99.90;;;;;;5021112;28;20444;-82
2022/04/09 04:30:14;;;;;;;5.10;4.20;;;3.20;99.90;;;;;;5033826;28;20527;-83
2022/04/09 04:32:59;;;;;;;8.30;6.13;;;3.30;99.90;;;;;;5030716;28;20419;-83
2022/04/09 04:35:44;;;;;;;5.97;5.40;;;3.60;99.90;;;;;;5032345;28;20416;-81
2022/04/09 04:38:29;;;;;;;6.23;5.33;;;3.80;99.90;;;;;;5002466;28;20415;-82
2022/04/09 04:41:13;;;;;;;6.17;4.93;;;3.90;99.90;;;;;;5015747;28;20471;-83
2022/04/09 04:43:57;;;;;;;7.47;5.37;;;4.00;99.90;;;;;;5013597;28;20463;-82
2022/04/09 04:46:42;;;;;;;8.50;5.53;;;4.10;99.90;;;;;;5013256;28;20397;-83
2022/04/09 04:49:27;;;;;;;6.57;5.13;;;4.20;99.90;;;;;;4998450;28;20456;-83
2022/04/09 04:52:11;;;;;;;8.57;6.00;;;4.30;99.90;;;;;;5030300;28;20405;-83
2022/04/09 04:54:56;;;;;;;11.00;6.37;;;4.20;99.90;;;;;;5041405;28;20471;-83
2022/04/09 04:57:43;;;;;;;8.80;5.10;;;4.30;99.90;;;;;;5041644;28;20414;-83
2022/04/09 05:00:28;;;;;;;5.17;4.23;;;4.20;99.90;;;;;;5042358;28;20401;-82
2022/04/09 05:03:12;;;;;;;8.50;5.10;;;4.30;99.90;;;;;;5054806;28;20412;-83
2022/04/09 05:05:57;;;;;;;9.40;5.57;;;4.40;99.90;;;;;;5044403;28;20382;-82
2022/04/09 05:08:41;;;;;;;8.43;5.23;;;4.40;99.90;;;;;;5036522;28;20453;-83
2022/04/09 05:11:27;;;;;;;6.47;5.37;;;4.50;99.90;;;;;;5071096;28;20492;-81
2022/04/09 05:14:12;;;;;;;5.40;4.70;;;4.50;99.90;;;;;;5049796;28;20894;-83
2022/04/09 05:16:57;;;;;;;6.50;5.53;;;4.50;99.90;;;;;;5065484;28;20478;-83
2022/04/09 05:19:42;;;;;;;7.20;5.70;;;4.60;99.90;;;;;;5064906;28;20390;-84
2022/04/09 05:22:27;;;;;;;5.30;4.00;;;4.60;99.90;;;;;;5043001;28;20493;-83
2022/04/09 05:25:14;;;;;;;6.83;5.00;;;4.50;99.90;;;;;;5043298;28;20394;-83
2022/04/09 05:28:03;;;;;;;8.03;7.23;;;4.50;99.90;;;;;;5049394;28;20402;-83
2022/04/09 05:30:50;;;;;;;15.90;7.90;;;4.40;99.90;;;;;;5050675;28;20412;-84
2022/04/09 05:33:35;;;;;;;6.67;4.33;;;4.50;99.90;;;;;;5037549;28;20375;-83
2022/04/09 05:36:20;;;;;;;7.67;5.43;;;4.50;99.90;;;;;;5049394;28;20986;-83
2022/04/09 05:39:04;;;;;;;6.60;5.37;;;4.40;99.90;;;;;;5062716;28;20399;-83
2022/04/09 05:41:49;;;;;;;10.67;6.50;;;4.40;99.90;;;;;;5062524;28;20430;-83
2022/04/09 05:44:33;;;;;;;4.63;4.13;;;4.50;99.90;;;;;;5048357;28;20418;-82
2022/04/09 05:47:18;;;;;;;7.07;5.27;;;4.50;99.90;;;;;;5063059;28;20434;-83
2022/04/09 05:50:05;;;;;;;6.20;4.47;;;4.50;99.90;;;;;;5062904;28;20493;-83
2022/04/09 05:52:54;;;;;;;5.90;5.50;;;4.40;99.90;;;;;;5070980;28;20417;-82
2022/04/09 05:55:38;;;;;;;7.43;5.13;;;4.60;99.90;;;;;;5083532;28;20400;-82
2022/04/09 05:58:23;;;;;;;6.40;5.30;;;4.60;99.90;;;;;;5084112;28;20376;-82
2022/04/09 06:01:08;;;;;;;6.83;4.77;;;4.50;99.90;;;;;;5069134;28;20393;-83
2022/04/09 06:03:53;;;;;;;6.47;5.57;;;4.50;99.90;;;;;;5018219;28;20433;-83
2022/04/09 06:06:38;;;;;;;6.57;5.03;;;4.50;99.90;;;;;;5011082;28;20388;-83
2022/04/09 06:09:22;;;;;;;7.10;5.60;;;4.50;99.90;;;;;;5010935;28;20532;-83
2022/04/09 06:12:09;;;;;;;6.03;5.13;;;4.60;99.90;;;;;;5026079;28;20451;-82
2022/04/09 06:14:56;;;;;;;9.03;5.73;;;4.60;99.90;;;;;;5029589;28;20392;-83
2022/04/09 06:17:41;;;;;;;8.57;5.60;;;4.60;99.90;;;;;;5030149;28;20477;-83
2022/04/09 06:20:25;;;;;;;7.50;5.80;;;4.70;99.90;;;;;;5015254;28;20519;-83
2022/04/09 06:23:10;;;;;;;16.00;7.30;;;4.60;99.90;;;;;;5028459;28;20409;-82
2022/04/09 06:25:54;;;;;;;9.93;5.50;;;4.80;99.90;;;;;;5027620;28;20471;-83
2022/04/09 06:28:38;;;;;;;11.57;5.90;;;4.80;99.90;;;;;;5028406;28;20399;-83
2022/04/09 06:31:23;;;;;;;5.47;4.87;;;4.80;99.90;;;;;;5001883;28;20417;-83
2022/04/09 06:34:07;;;;;;;6.23;5.63;;;4.90;99.90;;;;;;5041323;28;20389;-83
2022/04/09 06:36:52;;;;;;;5.70;5.10;;;5.10;99.90;;;;;;5073609;28;20365;-79
2022/04/09 06:39:37;;;;;;;8.97;5.90;;;5.20;99.90;;;;;;5072875;28;20384;-80
2022/04/09 06:42:22;;;;;;;8.20;6.57;;;5.20;99.90;;;;;;5073288;28;20425;-78
2022/04/09 06:45:08;;;;;;;5.67;4.23;;;5.20;99.90;;;;;;5055748;28;20440;-81
2022/04/09 06:47:53;;;;;;;9.33;5.50;;;5.30;99.90;;;;;;5067134;28;20414;-81
2022/04/09 06:50:38;;;;;;;5.70;5.20;;;5.10;99.90;;;;;;5066385;28;20484;-82
2022/04/09 06:53:22;;;;;;;7.50;5.90;;;5.10;99.90;;;;;;5067035;28;20406;-83
2022/04/09 06:56:10;;;;;;;8.87;5.70;;;5.00;99.90;;;;;;5067336;28;20442;-83
2022/04/09 06:58:55;;;;;;;9.23;5.90;;;5.00;99.90;;;;;;5067412;28;20390;-82
2022/04/09 07:01:39;;;;;;;6.57;5.23;;;5.00;99.90;;;;;;5076895;28;20369;-82
2022/04/09 07:04:24;;;;;;;6.33;5.03;;;4.80;99.90;;;;;;5070421;28;20394;-79
2022/04/09 07:07:09;;;;;;;10.60;5.77;;;5.00;99.90;;;;;;5075822;28;20405;-81
2022/04/09 07:10:03;;;;;;;8.70;6.27;;;5.00;99.90;;;;;;5049672;28;20420;-81
2022/04/09 07:12:47;;;;;;;6.67;6.07;;;5.20;99.90;;;;;;5069730;28;20939;-83
2022/04/09 07:15:33;;;;;;;8.30;5.70;;;5.50;99.90;;;;;;5084487;28;20940;-83
2022/04/09 07:18:18;;;;;;;9.90;4.80;;;5.60;99.90;;;;;;5084747;28;20413;-83
2022/04/09 07:21:03;;;;;;;7.87;5.77;;;5.70;99.90;;;;;;5083075;28;20945;-83
2022/04/09 07:23:47;;;;;;;8.23;5.53;;;5.90;99.90;;;;;;5083681;28;20941;-81
2022/04/09 07:26:35;;;;;;;10.70;6.33;;;6.00;99.90;;;;;;5083945;28;20393;-81
2022/04/09 07:29:19;;;;;;;8.73;6.40;;;6.10;99.90;;;;;;5083269;28;20444;-82
2022/04/09 07:32:07;;;;;;;12.73;6.30;;;6.00;99.90;;;;;;5081909;28;20391;-82
2022/04/09 07:34:52;;;;;;;7.47;5.77;;;5.50;99.90;;;;;;5083718;28;20377;-82
2022/04/09 07:37:47;;;;;;;7.13;4.43;;;5.40;99.90;;;;;;5068413;28;20388;-82
2022/04/09 07:40:32;;;;;;;8.07;5.80;;;5.70;99.90;;;;;;5083783;28;20390;-83
2022/04/09 07:43:17;;;;;;;18.60;7.90;;;5.80;99.90;;;;;;5069243;28;20748;-83
2022/04/09 07:46:01;;;;;;;19.20;6.97;;;5.90;99.90;;;;;;5084147;28;20416;-83
2022/04/09 07:48:45;;;;;;;12.20;8.37;;;5.90;99.90;;;;;;5083767;28;20488;-81
2022/04/09 07:51:30;;;;;;;16.30;8.00;;;5.90;99.90;;;;;;5069160;28;20461;-83
2022/04/09 07:54:15;;;;;;;16.07;8.40;;;5.90;99.90;;;;;;5084488;28;20389;-83
2022/04/09 07:56:59;;;;;;;12.90;7.90;;;5.90;99.90;;;;;;5040931;28;20457;-82
2022/04/09 07:59:44;;;;;;;12.40;6.97;;;5.90;99.90;;;;;;5083771;28;20380;-83
2022/04/09 08:02:29;;;;;;;8.37;6.37;;;5.90;99.90;;;;;;5067175;28;20447;-83
2022/04/09 08:05:15;;;;;;;8.27;6.70;;;5.60;99.90;;;;;;5082810;28;20389;-82
2022/04/09 08:08:01;;;;;;;14.07;5.90;;;5.50;99.90;;;;;;5067711;28;20393;-81
2022/04/09 08:10:45;;;;;;;6.73;4.33;;;5.60;99.90;;;;;;5079843;28;20628;-82
2022/04/09 08:13:29;;;;;;;8.40;6.00;;;5.60;99.90;;;;;;5062728;28;20390;-83
2022/04/09 08:16:14;;;;;;;5.80;4.80;;;5.60;99.90;;;;;;5063279;28;20382;-81
2022/04/09 08:19:01;;;;;;;8.40;5.83;;;5.70;99.90;;;;;;5062830;28;20425;-81
2022/04/09 08:21:45;;;;;;;7.23;5.80;;;5.80;99.90;;;;;;5062611;28;20389;-81
2022/04/09 08:24:29;;;;;;;5.53;5.00;;;5.60;99.90;;;;;;5047793;28;20481;-81
2022/04/09 08:27:15;;;;;;;13.87;6.37;;;5.60;99.90;;;;;;5063292;28;20432;-81
2022/04/09 08:30:00;;;;;;;5.93;4.90;;;5.60;99.90;;;;;;5019562;28;20504;-82
2022/04/09 08:32:46;;;;;;;5.97;5.47;;;5.80;99.90;;;;;;5062220;28;20394;-82
2022/04/09 08:35:31;;;;;;;7.60;5.47;;;5.80;99.90;;;;;;5067272;28;20401;-83
2022/04/09 08:38:16;;;;;;;6.87;5.63;;;5.80;99.90;;;;;;5067055;28;20894;-82
2022/04/09 08:41:03;;;;;;;8.37;4.93;;;5.80;99.90;;;;;;5063907;28;20890;-83
2022/04/09 08:43:47;;;;;;;9.53;4.80;;;5.80;99.90;;;;;;5063159;28;20938;-83
2022/04/09 08:46:52;;;;;;;7.87;4.27;;;5.80;99.90;;;;;;5063210;28;20390;-82
2022/04/09 08:49:40;;;;;;;5.03;4.57;;;5.90;99.90;;;;;;5000751;28;20515;-82
2022/04/09 08:52:26;;;;;;;5.80;5.30;;;5.80;99.90;;;;;;5001034;28;20481;-80
2022/04/09 08:55:13;;;;;;;4.20;3.60;;;5.70;99.90;;;;;;4986985;28;20425;-82
2022/04/09 08:57:57;;;;;;;6.47;5.37;;;5.90;99.90;;;;;;5001168;28;20407;-83
2022/04/09 09:00:45;;;;;;;4.97;4.43;;;5.80;99.90;;;;;;5000598;28;20367;-83
2022/04/09 09:03:30;;;;;;;11.60;5.37;;;5.80;99.90;;;;;;4988229;28;20952;-83
2022/04/09 09:06:28;;;;;;;12.80;5.27;;;5.80;99.90;;;;;;4987586;28;20396;-83
2022/04/09 09:09:31;;;;;;;7.63;5.27;;;6.00;99.90;;;;;;5002065;28;20456;-82
2022/04/09 09:12:32;;;;;;;5.00;4.60;;;5.80;99.90;;;;;;5003081;28;20454;-81
2022/04/09 09:15:16;;;;;;;10.23;3.90;;;6.00;99.90;;;;;;5006952;28;20431;-81
2022/04/09 09:18:00;;;;;;;4.43;3.83;;;6.20;99.90;;;;;;5007671;28;20468;-82
2022/04/09 09:20:49;;;;;;;6.20;4.73;;;6.40;99.90;;;;;;5062859;28;20408;-82
2022/04/09 09:23:34;;;;;;;6.73;4.03;;;6.80;99.90;;;;;;5082676;28;20412;-82
2022/04/09 09:26:21;;;;;;;7.07;4.43;;;7.10;99.90;;;;;;5067587;28;20473;-82
2022/04/09 09:29:08;;;;;;;6.50;4.03;;;7.50;99.90;;;;;;5067791;28;20444;-82
2022/04/09 09:31:53;;;;;;;8.03;4.00;;;7.50;99.90;;;;;;5082256;28;20392;-82
2022/04/09 09:34:37;;;;;;;5.83;4.20;;;7.50;99.90;;;;;;5082448;28;20393;-82
2022/04/09 09:37:24;;;;;;;4.53;3.63;;;7.80;99.90;;;;;;5082792;28;20425;-82
2022/04/09 09:40:09;;;;;;;4.17;3.80;;;7.90;99.90;;;;;;5083416;28;20413;-82
2022/04/09 09:43:13;;;;;;;3.30;3.10;;;7.80;99.90;;;;;;5083863;28;20385;-83
2022/04/09 09:45:57;;;;;;;4.17;3.27;;;7.90;99.90;;;;;;5083657;28;20485;-83
2022/04/09 09:48:49;;;;;;;8.03;3.33;;;8.50;99.90;;;;;;5053733;28;20404;-82
2022/04/09 09:51:33;;;;;;;4.13;3.40;;;8.60;99.90;;;;;;5083537;28;20381;-83
2022/04/09 09:54:18;;;;;;;3.90;3.60;;;8.40;99.90;;;;;;5075192;28;20466;-82
2022/04/09 09:57:02;;;;;;;4.13;3.73;;;8.40;99.90;;;;;;5088248;28;20405;-81
2022/04/09 09:59:49;;;;;;;3.53;3.30;;;9.30;99.90;;;;;;5058079;28;20443;-81
2022/04/09 10:02:34;;;;;;;5.13;3.77;;;9.40;99.90;;;;;;5071616;28;20432;-82
2022/04/09 10:05:23;;;;;;;3.60;2.67;;;9.50;99.90;;;;;;5083453;28;20385;-82
2022/04/09 10:08:08;;;;;;;3.40;2.83;;;8.30;99.90;;;;;;5067357;28;20447;-83
2022/04/09 10:10:58;;;;;;;3.00;2.73;;;8.90;99.90;;;;;;5067405;28;20440;-84
2022/04/09 10:13:44;;;;;;;3.33;2.83;;;8.80;99.90;;;;;;5086854;28;20388;-83
2022/04/09 10:16:33;;;;;;;4.93;2.93;;;8.90;99.90;;;;;;5088109;28;20376;-83
2022/04/09 10:19:22;;;;;;;7.53;3.77;;;9.10;99.90;;;;;;5088623;28;20428;-82
2022/04/09 10:22:06;;;;;;;3.03;2.60;;;8.60;99.90;;;;;;5090490;28;20397;-84
2022/04/09 10:24:52;;;;;;;8.63;3.60;;;8.30;99.90;;;;;;5087826;28;20419;-82
2022/04/09 10:27:40;;;;;;;3.80;3.10;;;8.90;99.90;;;;;;5076901;28;20410;-81
2022/04/09 10:30:25;;;;;;;4.53;3.50;;;9.20;99.90;;;;;;5079944;28;20444;-80
2022/04/09 10:33:26;;;;;;;7.03;2.50;;;8.90;99.90;;;;;;5095003;28;20397;-78
2022/04/09 10:36:11;;;;;;;3.47;3.17;;;9.60;99.90;;;;;;5090310;28;20524;-82
2022/04/09 10:39:31;;;;;;;4.03;2.80;;;9.80;99.90;;;;;;5087199;28;20443;-84
2022/04/09 10:42:45;;;;;;;5.30;2.97;;;9.80;99.90;;;;;;5086664;28;20484;-81
2022/04/09 10:45:29;;;;;;;6.40;3.23;;;10.00;99.90;;;;;;5086349;28;20528;-83
2022/04/09 10:48:14;;;;;;;8.97;2.60;;;9.80;99.90;;;;;;5086939;28;20499;-84
2022/04/09 10:51:04;;;;;;;5.43;2.93;;;11.10;99.90;;;;;;5071156;28;20409;-84
2022/04/09 10:53:50;;;;;;;4.53;2.50;;;12.00;99.90;;;;;;5085805;28;20389;-83
2022/04/09 10:56:50;;;;;;;2.60;2.40;;;10.60;99.90;;;;;;5071345;28;20500;-84
2022/04/09 10:59:36;;;;;;;2.50;2.20;;;11.70;99.90;;;;;;5086537;28;20382;-83
2022/04/09 11:02:21;;;;;;;3.03;2.73;;;12.50;99.90;;;;;;5085843;28;20790;-83
2022/04/09 11:05:21;;;;;;;2.57;2.30;;;12.70;99.90;;;;;;5088026;28;20377;-82
2022/04/09 11:08:08;;;;;;;2.67;2.07;;;12.70;99.90;;;;;;5087968;28;20373;-82
2022/04/09 11:10:53;;;;;;;2.10;1.90;;;13.10;99.90;;;;;;5086802;28;20484;-82
2022/04/09 11:13:40;;;;;;;5.77;2.50;;;13.80;99.90;;;;;;5073588;28;20378;-80
2022/04/09 11:16:32;;;;;;;3.17;2.73;;;13.70;99.90;;;;;;5073648;28;20451;-81
2022/04/09 11:19:21;;;;;;;10.50;3.13;;;13.10;99.90;;;;;;5092236;28;20420;-83
2022/04/09 11:22:05;;;;;;;9.63;2.57;;;13.50;99.90;;;;;;5096374;28;20395;-79
2022/04/09 11:24:50;;;;;;;9.23;2.20;;;13.40;99.90;;;;;;5092006;28;20470;-79
2022/04/09 11:27:35;;;;;;;4.50;2.27;;;13.40;99.90;;;;;;5065664;28;20396;-80
2022/04/09 11:30:20;;;;;;;9.83;2.70;;;14.00;99.90;;;;;;5069915;28;20522;-83
2022/04/09 11:33:05;;;;;;;2.97;2.27;;;14.10;99.90;;;;;;5088600;28;20413;-82
2022/04/09 11:35:51;;;;;;;7.20;2.73;;;14.80;99.90;;;;;;5094535;28;20443;-82
2022/04/09 11:38:36;;;;;;;4.53;2.53;;;15.20;99.90;;;;;;5088578;28;20404;-81
2022/04/09 11:41:21;;;;;;;4.10;2.23;;;15.50;99.90;;;;;;5078157;28;20380;-83
2022/04/09 11:44:06;;;;;;;3.57;2.33;;;15.50;99.90;;;;;;5071239;28;20405;-82
2022/04/09 11:46:51;;;;;;;3.87;2.60;;;16.20;98.00;;;;;;5086330;28;20444;-83
2022/04/09 11:49:36;;;;;;;6.67;2.60;;;16.00;98.10;;;;;;5085219;28;20464;-82
2022/04/09 11:52:29;;;;;;;4.70;2.50;;;15.60;98.90;;;;;;5085939;28;20436;-83
2022/04/09 11:55:15;;;;;;;4.23;2.80;;;15.20;99.50;;;;;;5086303;28;20424;-83
2022/04/09 11:58:01;;;;;;;2.77;2.30;;;14.10;99.40;;;;;;5057983;28;20451;-83
2022/04/09 12:00:46;;;;;;;2.60;1.80;;;13.30;99.90;;;;;;5085410;28;20420;-83
2022/04/09 12:03:32;;;;;;;3.10;2.07;;;12.80;99.90;;;;;;5070522;28;20770;-83
2022/04/09 12:06:17;;;;;;;2.40;2.20;;;13.40;99.90;;;;;;5074818;28;20468;-82
2022/04/09 12:09:02;;;;;;;5.37;2.50;;;14.20;99.90;;;;;;5074173;28;20813;-80
2022/04/09 12:11:53;;;;;;;3.50;2.23;;;14.40;99.90;;;;;;5081550;28;20452;-80
2022/04/09 12:14:40;;;;;;;3.77;2.10;;;15.80;97.00;;;;;;5081300;28;20393;-80
2022/04/09 12:17:33;;;;;;;3.40;2.27;;;16.20;92.40;;;;;;5081793;28;20385;-81
2022/04/09 12:20:36;;;;;;;3.40;1.83;;;15.50;92.40;;;;;;5081847;28;20786;-79
2022/04/09 12:23:32;;;;;;;3.80;1.80;;;16.00;92.30;;;;;;5065150;28;20404;-83
2022/04/09 12:26:25;;;;;;;6.93;2.47;;;17.20;91.70;;;;;;5059725;28;20541;-81
2022/04/09 12:29:19;;;;;;;3.13;2.77;;;17.20;88.80;;;;;;5080182;28;20440;-83
2022/04/09 12:32:19;;;;;;;4.03;2.37;;;16.80;90.00;;;;;;5066333;28;20449;-81
2022/04/09 12:35:06;;;;;;;8.73;2.60;;;15.80;87.40;;;;;;5080873;28;20889;-82
2022/04/09 12:37:51;;;;;;;4.70;1.90;;;16.50;89.90;;;;;;5065050;28;20884;-82
2022/04/09 12:40:37;;;;;;;4.10;2.73;;;15.10;87.10;;;;;;5081084;28;20528;-81
2022/04/09 12:43:40;;;;;;;7.93;2.80;;;15.70;92.00;;;;;;5081103;28;20397;-80
2022/04/09 12:46:24;;;;;;;5.83;2.30;;;15.40;91.10;;;;;;5067966;28;20408;-82
2022/04/09 12:49:09;;;;;;;3.03;2.27;;;16.00;89.70;;;;;;5065569;28;20492;-83
2022/04/09 12:51:54;;;;;;;6.57;2.37;;;17.40;87.20;;;;;;5081501;28;20380;-83
2022/04/09 12:54:39;;;;;;;4.50;2.27;;;17.30;84.60;;;;;;5065660;28;20451;-82
2022/04/09 12:57:42;;;;;;;2.50;2.17;;;17.40;77.80;;;;;;5059153;28;20719;-82
2022/04/09 13:00:32;;;;;;;2.87;2.47;;;16.60;82.10;;;;;;5045143;28;20417;-82
2022/04/09 13:03:17;;;;;;;2.90;1.90;;;16.10;87.50;;;;;;5059229;28;20414;-80
2022/04/09 13:06:02;;;;;;;5.33;2.43;;;15.20;85.30;;;;;;5050306;28;21192;-82
2022/04/09 13:08:46;;;;;;;4.53;3.07;;;14.20;86.80;;;;;;5060297;28;20385;-81
2022/04/09 13:11:31;;;;;;;4.33;2.20;;;13.60;91.30;;;;;;5059439;28;20449;-81
2022/04/09 13:14:16;;;;;;;4.43;2.27;;;12.70;91.20;;;;;;5060232;28;20418;-82
2022/04/09 13:17:00;;;;;;;4.60;2.40;;;12.10;94.40;;;;;;5059964;28;20799;-82
2022/04/09 13:19:45;;;;;;;6.53;2.53;;;12.50;94.80;;;;;;5048090;28;20385;-80
2022/04/09 13:22:30;;;;;;;2.20;2.00;;;13.20;96.40;;;;;;5059102;28;20449;-83
2022/04/09 13:25:18;;;;;;;4.10;1.97;;;14.20;95.80;;;;;;5059411;28;20425;-82
2022/04/09 13:28:03;;;;;;;7.73;2.50;;;15.20;93.70;;;;;;5066551;28;20436;-81
2022/04/09 13:30:52;;;;;;;6.17;2.50;;;15.70;92.70;;;;;;5080582;28;20472;-81
2022/04/09 13:33:36;;;;;;;2.83;2.57;;;15.50;92.10;;;;;;5081255;28;20385;-79
2022/04/09 13:36:23;;;;;;;3.00;2.23;;;16.10;91.70;;;;;;5064436;28;20409;-81
2022/04/09 13:39:11;;;;;;;4.37;2.07;;;16.40;90.70;;;;;;5050720;28;20417;-81
2022/04/09 13:41:57;;;;;;;7.43;3.90;;;16.40;88.80;;;;;;5080310;28;20485;-80
2022/04/09 13:44:45;;;;;;;3.40;2.70;;;15.50;90.00;;;;;;5065136;28;20396;-82
2022/04/09 13:47:29;;;;;;;5.50;2.90;;;14.40;91.20;;;;;;5081629;28;20483;-82
2022/04/09 13:50:15;;;;;;;4.67;2.47;;;13.90;93.40;;;;;;5069403;28;20932;-81
2022/04/09 13:52:59;;;;;;;1.63;1.50;;;13.40;94.70;;;;;;5068598;28;20389;-82
2022/04/09 13:55:45;;;;;;;1.93;1.70;;;14.80;91.90;;;;;;5084637;28;20425;-82
2022/04/09 13:58:30;;;;;;;1.37;1.27;;;15.50;90.40;;;;;;5083890;28;20496;-80
2022/04/09 14:01:14;;;;;;;4.40;2.33;;;16.20;87.70;;;;;;5069120;28;20392;-81
2022/04/09 14:04:00;;;;;;;5.43;1.60;;;16.80;84.90;;;;;;5054880;28;20420;-81
2022/04/09 14:06:44;;;;;;;5.13;2.50;;;17.10;81.20;;;;;;5084907;28;20448;-81
2022/04/09 14:09:29;;;;;;;1.93;1.60;;;17.10;80.40;;;;;;5068798;28;20432;-79
2022/04/09 14:12:15;;;;;;;5.50;1.93;;;16.90;78.70;;;;;;5069129;28;20452;-82
2022/04/09 14:14:59;;;;;;;4.17;3.30;;;15.50;80.00;;;;;;5069043;28;20439;-81
2022/04/09 14:17:44;;;;;;;4.13;2.40;;;14.60;84.10;;;;;;5083510;28;20396;-82
2022/04/09 14:20:29;;;;;;;2.93;1.97;;;13.30;90.80;;;;;;5084103;28;20799;-81
2022/04/09 14:23:14;;;;;;;2.87;2.17;;;13.00;92.40;;;;;;5084491;28;20436;-81
2022/04/09 14:26:00;;;;;;;2.57;2.30;;;12.50;93.70;;;;;;5040576;28;20421;-81
2022/04/09 14:28:44;;;;;;;3.73;2.17;;;11.80;95.90;;;;;;5083971;28;20451;-82
2022/04/09 14:31:30;;;;;;;3.07;2.33;;;11.20;99.20;;;;;;5054073;28;20712;-82
2022/04/09 14:34:15;;;;;;;5.57;3.70;;;10.60;99.90;;;;;;5085163;28;20396;-81